Terminal Aerodrome Forecast
Issued by NWS

Home | Current Version | Previous Version | Text Only | Print | Product List | Glossary On
Versions: 1 2 3 4 5 6 7 8 9 10 11 12 13 14 15 16 17 18 19 20 21 22 23 24 25 26
000
FTUS43 KPAH 251125
TAFOWB
TAF
KOWB 251125Z 2512/2612 15007KT P6SM OVC015
     FM251800 23013KT P6SM VCTS SCT020 BKN040CB
     FM252200 26012G20KT 5SM -TSRA BKN035CB
      TEMPO 2601/2605 VRB20G40KT 1SM +TSRA BR OVC008CB
     FM260700 36010KT P6SM OVC007=

USA.gov is the U.S. government's official web portal to all federal, state and local government web resources and services.